Have a Safe July 4th! 

Flight Track Log - Related Links

Times and Time Zones

All times are in EDT time to prevent confusion due to time zone crossing. See the FLG3829 flight status page for this flight to view local times or setup timezone preferences in your user account.

Time Position Orientation Groundspeed Altitude Reporting Facility
EDT Latitude Longitude Course Direction KTS MPH feet Rate Location/Type
Mon 12:22:01 PM 40.6033 -89.7206 96° East 239 275 2,800  Level Chicago Center
Mon 12:23:03 PM 40.5825 -89.6408 109° East 249 287 4,500 1,854 Climbing Chicago Center
Mon 12:24:04 PM 40.5833 -89.5367 89° East 281 323 6,600 2,195 Climbing Chicago Center
Mon 12:25:06 PM 40.5836 -89.4231 90° East 303 349 9,000 2,032 Climbing Chicago Center
Mon 12:26:08 PM 40.5831 -89.3033 90° East 321 369 10,800 1,403 Climbing Chicago Center
Mon 12:27:00 PM 40.6152 -88.9135 96° East  Level FlightAware Approximate
Mon 12:27:10 PM 40.5833 -89.1669 90° East 360 414 11,900  Level Chicago Center
Mon 12:28:11 PM 40.5831 -88.9942 90° East 391 450 14,200 1,951 Climbing Chicago Center
Mon 12:29:13 PM 40.5839 -88.8522 90° East 390 449 15,900 1,403 Climbing Chicago Center
Mon 12:30:15 PM 40.5831 -88.7161 90° East 399 459 17,100 1,210 Climbing Chicago Center
Mon 12:31:17 PM 40.5825 -88.5669 90° East 407 468 18,400 1,220 Climbing Chicago Center
Mon 12:32:18 PM 40.5822 -88.3825 90° East 423 487 19,600 1,073 Climbing Chicago Center
Mon 12:33:20 PM 40.5817 -88.2244 90° East 431 496 20,600 968 Climbing Chicago Center
Mon 12:34:22 PM 40.5792 -88.0664 91° East 435 501 21,600 968 Climbing Chicago Center
Mon 12:35:24 PM 40.5767 -87.9056 91° East 441 507 22,600 677 Climbing Chicago Center
Mon 12:36:26 PM 40.5742 -87.7442 91° East 444 511 23,000 194 Climbing Chicago Center
Mon 12:37:28 PM 40.5697 -87.5781 92° East 454 522 23,000  Level Chicago Center
Mon 12:38:29 PM 40.5642 -87.3803 92° East 454 522 23,000  Level Chicago Center
Mon 12:39:31 PM 40.5603 -87.2131 92° East 459 528 23,000  Level Chicago Center
Mon 12:40:33 PM 40.5597 -87.0636 90° East 462 532 23,000  Level Chicago Center
Mon 12:41:35 PM 40.6036 -86.8731 73° East 455 524 23,000  Level Chicago Center
Mon 12:43:39 PM 40.6753 -86.5581 73° East 447 514 23,000  Level Chicago Center
Mon 12:44:40 PM 40.7081 -86.4139 73° East 444 511 23,000  Level Chicago Center
Mon 12:45:42 PM 40.7497 -86.2306 73° East 439 505 23,000  Level Chicago Center
Mon 12:46:44 PM 40.7856 -86.0753 73° East 442 509 23,000  Level Chicago Center
Mon 12:47:46 PM 40.8211 -85.9156 74° East 453 521 23,000  Level Chicago Center
Mon 12:48:48 PM 40.8561 -85.7533 74° East 460 529 23,000  Level Chicago Center
Mon 12:49:50 PM 40.8922 -85.5892 74° East 468 539 23,000  Level Chicago Center
Mon 12:50:52 PM 40.9283 -85.4242 74° East 471 542 23,000  Level Chicago Center
Mon 12:51:53 PM 40.9719 -85.2231 74° East 477 549 23,000  Level Chicago Center
Mon 12:52:55 PM 41.0542 -85.1061 47° Northeast 444 511 23,000 -242 Level Chicago Center
Mon 12:53:57 PM 41.1475 -85.0061 39° Northeast 436 502 22,500 -726 Descending Chicago Center
Mon 12:54:59 PM 41.2389 -84.9083 39° Northeast 428 493 21,500 -726 Descending Chicago Center
Mon 12:56:01 PM 41.3286 -84.8119 39° Northeast 422 486 21,000 -242 Descending Chicago Center
Mon 12:57:03 PM 41.4283 -84.6914 42° Northeast 411 473 21,000 -780 Level Chicago Center
Mon 12:58:04 PM 41.5036 -84.5683 51° Northeast 427 491 19,400 -1,659 Descending Chicago Center
Mon 12:59:06 PM 41.5792 -84.4444 51° Northeast 432 497 17,600 -1,815 Descending Chicago Center
Mon 01:00:03 PM 41.6575 -84.3222 49° Northeast 421 484 15,800 -1,663 Descending Cleveland Center
Mon 01:00:47 PM 41.6975 -84.2531 52° Northeast 418 481 14,800 -1,592 Descending Cleveland Center
Mon 01:00:52 PM 41.7139 -84.2272 50° Northeast 407 468 14,500 -1,800 Descending Cleveland Center
Mon 01:01:47 PM 41.7753 -84.1244 51° Northeast 387 445 13,000 -1,368 Descending Cleveland Center
Mon 01:01:49 PM 41.7661 -84.1392 230° Southwest 398 458 13,200 -1,000 Climbing Cleveland Center
Mon 01:02:47 PM 41.8436 -84.0117 51° Northeast 388 447 12,000 -1,065 Descending Cleveland Center
Mon 01:02:51 PM 41.8331 -84.0281 229° Southwest 389 448 12,100  Climbing Cleveland Center
Mon 01:03:42 PM 41.9089 -83.9064 50° Northeast 395 455 12,000 -98 Descending Cleveland Center
Mon 01:03:52 PM 41.9169 -83.8933 50° Northeast 391 450 12,000  Level Cleveland Center
Mon 01:04:49 PM 41.9894 -83.7947 45° Northeast 390 449 12,000  Level Cleveland Center
Mon 01:04:54 PM 41.9925 -83.7881 58° Northeast 391 450 12,000  Level Cleveland Center
Mon 01:05:56 PM 42.0647 -83.6825 47° Northeast 390 449 12,000  Level Cleveland Center
Mon 01:06:57 PM 42.1461 -83.5700 46° Northeast 370 426 12,000  Level Cleveland Center
Mon 01:06:58 PM 42.1375 -83.5772 212° Southwest 389 448 12,000  Level Cleveland Center
Mon 01:07:59 PM 42.2117 -83.5158 32° Northeast 304 350 12,000  Level Cleveland Center
Mon 01:08:03 PM 42.2203 -83.5072 37° Northeast 263 303 12,000 -1,846 Level Cleveland Center
Mon 01:09:04 PM 42.2828 -83.4569 31° Northeast 259 298 10,000 -1,909 Descending Cleveland Center
Mon 01:09:53 PM 42.3342 -83.4164 30° Northeast 255 293 8,500 -1,831 Descending Cleveland Center
Mon 01:10:03 PM 42.3447 -83.4064 35° Northeast 254 292 8,200 -1,970 Descending Cleveland Center
Mon 01:11:00 PM 42.3989 -83.3661 29° Northeast 235 270 6,300 -1,935 Descending Cleveland Center
Mon 01:11:05 PM 42.4039 -83.3625 28° Northeast 246 283 6,200 -2,111 Descending Cleveland Center
Mon 01:11:54 PM 42.4386 -83.3153 45° Northeast 247 284 4,400 -1,839 Descending Cleveland Center
Mon 01:12:07 PM 42.4397 -83.3075 79° East 258 297 4,300 -716 Descending Cleveland Center
Mon 01:13:01 PM 42.3814 -83.2675 153° Southeast 217 250 3,600 -590 Descending Cleveland Center
Mon 01:13:08 PM 42.3892 -83.2675 360° North 227 261 3,700 -609 Climbing Cleveland Center
Mon 01:14:10 PM 42.3300 -83.2875 194° South 191 220 2,900 -626 Descending Cleveland Center
Mon 01:15:03 PM 42.2939 -83.3147 209° Southwest 158 182 2,500 -484 Descending Cleveland Center
Mon 01:15:12 PM 42.2917 -83.3181 228° Southwest 170 196 2,400 -800 Descending Cleveland Center
Mon 01:16:03 PM 42.2606 -83.3408 208° Southwest 136 157 1,700 -762 Descending Cleveland Center
Mon 01:16:15 PM 42.2575 -83.3422 199° South 151 174 1,600 -658 Descending Cleveland Center
Mon 01:17:16 PM 42.2222 -83.3694 210° Southwest 141 162 900 -689 Descending Cleveland Center

Login

Don't have an account? Register now (free) for customized features, flight alerts, and more!